Terminal Aerodrome Forecast
Issued by NWS

Home | Current Version | Previous Version | Text Only | Print | Product List | Glossary On
Versions: 1 2 3 4 5 6 7 8 9 10 11 12 13 14 15 16 17 18 19 20 21 22 23 24 25 26 27 28 29
172
FTUS41 KPHI 242053 AAA
TAFMIV
TAF AMD
KMIV 242053Z 2421/2518 04005KT P6SM VCSH OVC025
      TEMPO 2421/2501 4SM -RA
     FM250300 09009KT 4SM -RA OVC020
     FM250700 09009KT 2SM -RA OVC007
     FM251400 14006KT 1 1/2SM -RA OVC004
     FM251700 20007KT 3SM -RA BKN012=

USA.gov is the U.S. government's official web portal to all federal, state and local government web resources and services.